createdAt,value
2022-07-27T00:00:10.289Z,98987.25
2022-07-27T00:01:13.175Z,98986.42
2022-07-27T00:02:15.800Z,98983.77
2022-07-27T00:03:18.673Z,98982.14
2022-07-27T00:04:21.317Z,98986.42
2022-07-27T00:05:24.216Z,98983.77
2022-07-27T00:06:27.293Z,98986.66
2022-07-27T00:07:29.963Z,98986.66
2022-07-27T00:08:32.491Z,98988.69
2022-07-27T00:09:35.095Z,98981.73
2022-07-27T00:10:38.182Z,98980.91
2022-07-27T00:11:40.807Z,98987.45
2022-07-27T00:12:43.411Z,98979.67
2022-07-27T00:13:45.983Z,98973.52
2022-07-27T00:14:48.960Z,98966.34
2022-07-27T00:15:51.592Z,98967.17
2022-07-27T00:16:55.116Z,98974.34
2022-07-27T00:17:57.680Z,98973.52
2022-07-27T00:19:00.768Z,98973.70
2022-07-27T00:20:03.537Z,98973.93
2022-07-27T00:21:06.244Z,98982.12
2022-07-27T00:22:08.934Z,98983.14
2022-07-27T00:23:11.743Z,98979.87
2022-07-27T00:24:14.318Z,98986.21
2022-07-27T00:25:16.946Z,98983.55
2022-07-27T00:26:20.369Z,98980.88
2022-07-27T00:27:23.031Z,98979.23
2022-07-27T00:28:25.713Z,98977.80
2022-07-27T00:29:28.376Z,98980.47
2022-07-27T00:30:31.347Z,98986.63
2022-07-27T00:31:33.982Z,98976.79
2022-07-27T00:32:36.992Z,98980.28
2022-07-27T00:33:39.583Z,98983.77
2022-07-27T00:34:42.441Z,98985.61
2022-07-27T00:35:45.119Z,98985.61
2022-07-27T00:36:47.936Z,98985.80
2022-07-27T00:37:50.608Z,98986.63
2022-07-27T00:38:53.240Z,98985.61
2022-07-27T00:39:55.842Z,98990.72
2022-07-27T00:40:58.659Z,98986.21
2022-07-27T00:42:01.962Z,98987.86
2022-07-27T00:43:04.608Z,98989.70
2022-07-27T00:44:07.176Z,98985.20
2022-07-27T00:45:09.756Z,98989.70
2022-07-27T00:46:12.913Z,98986.21
2022-07-27T00:47:15.592Z,98984.56
2022-07-27T00:48:18.159Z,98985.61
2022-07-27T00:49:20.837Z,98982.95
2022-07-27T00:50:24.212Z,98984.78
2022-07-27T00:51:26.739Z,98983.96
2022-07-27T00:52:29.359Z,98991.95
2022-07-27T00:53:31.916Z,98988.69
2022-07-27T00:54:34.588Z,98984.38
2022-07-27T00:55:37.357Z,98975.74
2022-07-27T00:56:40.240Z,98986.63
2022-07-27T00:57:59.111Z,98980.66
2022-07-27T00:58:47.311Z,98979.84
2022-07-27T00:59:50.185Z,98982.72
2022-07-27T01:00:53.050Z,98981.08
2022-07-27T01:01:55.853Z,98984.56
2022-07-27T01:02:58.832Z,98979.23
2022-07-27T01:04:03.217Z,98983.73
2022-07-27T01:05:07.114Z,98976.98
2022-07-27T01:06:11.277Z,98977.16
2022-07-27T01:07:13.885Z,98986.40
2022-07-27T01:08:16.516Z,98984.94
2022-07-27T01:09:19.119Z,98984.14
2022-07-27T01:10:23.583Z,98991.50
2022-07-27T01:11:26.301Z,98987.19
2022-07-27T01:12:28.860Z,98987.41
2022-07-27T01:13:31.441Z,98991.46
2022-07-27T01:14:34.104Z,98985.72
2022-07-27T01:15:36.733Z,98987.74
2022-07-27T01:16:40.207Z,98987.96
2022-07-27T01:17:42.832Z,98988.16
2022-07-27T01:18:45.502Z,98984.88
2022-07-27T01:19:48.131Z,98987.73
2022-07-27T01:20:51.145Z,98990.40
2022-07-27T01:21:53.915Z,98992.23
2022-07-27T01:22:56.543Z,98998.58
2022-07-27T01:23:59.768Z,98997.78
2022-07-27T01:25:02.425Z,98993.47
2022-07-27T01:26:05.728Z,98990.98
2022-07-27T01:27:08.389Z,98999.20
2022-07-27T01:28:11.069Z,98990.57
2022-07-27T01:29:14.180Z,98990.57
2022-07-27T01:30:18.243Z,98987.08
2022-07-27T01:31:20.941Z,98997.13
2022-07-27T01:32:23.597Z,98990.16
2022-07-27T01:33:26.345Z,98993.83
2022-07-27T01:34:29.020Z,98994.66
2022-07-27T01:35:31.692Z,98999.16
2022-07-27T01:36:34.465Z,98997.31
2022-07-27T01:37:37.129Z,98991.98
2022-07-27T01:38:41.544Z,98993.22
2022-07-27T01:39:44.082Z,99002.63
2022-07-27T01:40:47.089Z,98999.33
2022-07-27T01:41:50.065Z,99003.03
2022-07-27T01:42:53.341Z,98998.72
2022-07-27T01:43:55.911Z,98998.72
2022-07-27T01:44:58.608Z,98999.55
2022-07-27T01:46:01.164Z,98999.33
2022-07-27T01:47:03.813Z,99001.98
2022-07-27T01:48:08.535Z,98995.65
2022-07-27T01:49:11.602Z,99004.47
2022-07-27T01:50:16.201Z,99007.95
2022-07-27T01:51:18.754Z,99001.61
2022-07-27T01:52:21.359Z,99007.36
2022-07-27T01:53:24.237Z,99004.48
2022-07-27T01:54:26.847Z,98999.80
2022-07-27T01:55:36.948Z,99002.23
2022-07-27T01:56:34.085Z,98998.78
2022-07-27T01:57:36.715Z,99002.23
2022-07-27T01:58:39.320Z,99001.23
2022-07-27T01:59:41.889Z,99000.40
2022-07-27T02:00:44.864Z,98994.88
2022-07-27T02:01:47.605Z,98999.58
2022-07-27T02:02:50.510Z,98995.08
2022-07-27T02:03:53.201Z,99005.54
2022-07-27T02:04:55.787Z,99000.22
2022-07-27T02:05:58.516Z,99004.72
2022-07-27T02:07:01.492Z,99010.05
2022-07-27T02:08:04.064Z,99003.70
2022-07-27T02:09:06.755Z,99011.47
2022-07-27T02:10:10.746Z,99008.63
2022-07-27T02:11:13.296Z,99012.94
2022-07-27T02:12:15.824Z,99013.36
2022-07-27T02:13:22.308Z,99007.44
2022-07-27T02:14:22.951Z,99016.27
2022-07-27T02:15:25.709Z,99012.63
2022-07-27T02:16:28.885Z,99013.66
2022-07-27T02:17:35.104Z,99005.89
2022-07-27T02:18:37.921Z,99015.34
2022-07-27T02:19:41.508Z,99012.90
2022-07-27T02:20:45.225Z,99009.83
2022-07-27T02:21:48.099Z,99017.22
2022-07-27T02:22:50.748Z,99015.77
2022-07-27T02:23:53.374Z,99009.84
2022-07-27T02:24:55.983Z,99017.39
2022-07-27T02:25:58.502Z,99011.77
2022-07-27T02:27:01.730Z,99013.11
2022-07-27T02:28:04.296Z,99017.14
2022-07-27T02:29:06.866Z,99011.30
2022-07-27T02:30:11.379Z,99011.63
2022-07-27T02:31:13.912Z,99020.55
2022-07-27T02:32:16.534Z,99017.86
2022-07-27T02:33:19.160Z,99025.94
2022-07-27T02:34:22.217Z,99019.57
2022-07-27T02:35:24.843Z,99024.73
2022-07-27T02:36:27.919Z,99022.50
2022-07-27T02:37:30.572Z,99016.11
2022-07-27T02:38:33.161Z,99024.59
2022-07-27T02:39:35.767Z,99020.68
2022-07-27T02:40:38.607Z,99029.72
2022-07-27T02:41:41.208Z,99023.35
2022-07-27T02:42:43.829Z,99031.66
2022-07-27T02:43:46.859Z,99032.62
2022-07-27T02:44:49.624Z,99037.22
2022-07-27T02:45:52.338Z,99038.41
2022-07-27T02:46:55.516Z,99029.41
2022-07-27T02:47:59.516Z,99035.52
2022-07-27T02:49:02.171Z,99035.76
2022-07-27T02:50:05.164Z,99044.87
2022-07-27T02:51:07.832Z,99037.52
2022-07-27T02:52:10.499Z,99037.99
2022-07-27T02:53:13.075Z,99034.95
2022-07-27T02:54:15.737Z,99038.56
2022-07-27T02:55:18.323Z,99039.73
2022-07-27T02:56:26.893Z,99032.98
2022-07-27T02:57:26.363Z,99030.77
2022-07-27T02:58:28.849Z,99035.66
2022-07-27T02:59:31.439Z,99034.50
2022-07-27T03:00:34.268Z,99034.63
2022-07-27T03:01:37.240Z,99034.36
2022-07-27T03:02:40.267Z,99038.47
2022-07-27T03:03:42.949Z,99032.96
2022-07-27T03:04:45.533Z,99035.65
2022-07-27T03:05:48.434Z,99036.45
2022-07-27T03:06:51.472Z,99037.47
2022-07-27T03:07:54.020Z,99042.73
2022-07-27T03:08:56.791Z,99038.07
2022-07-27T03:09:59.360Z,99040.05
2022-07-27T03:11:02.150Z,99047.82
2022-07-27T03:12:04.841Z,99045.67
2022-07-27T03:13:07.468Z,99044.86
2022-07-27T03:14:10.080Z,99045.00
2022-07-27T03:15:12.662Z,99047.32
2022-07-27T03:16:16.460Z,99045.82
2022-07-27T03:17:19.374Z,99039.98
2022-07-27T03:18:21.944Z,99046.92
2022-07-27T03:19:28.373Z,99034.94
2022-07-27T03:20:30.150Z,99043.78
2022-07-27T03:21:32.818Z,99033.05
2022-07-27T03:22:36.006Z,99039.77
2022-07-27T03:23:38.674Z,99038.13
2022-07-27T03:24:43.076Z,99047.19
2022-07-27T03:25:45.678Z,99044.75
2022-07-27T03:26:48.619Z,99041.41
2022-07-27T03:27:51.151Z,99042.71
2022-07-27T03:28:53.755Z,99040.64
2022-07-27T03:29:56.427Z,99045.59
2022-07-27T03:30:59.390Z,99035.90
2022-07-27T03:32:02.277Z,99046.15
2022-07-27T03:33:05.048Z,99045.85
2022-07-27T03:34:07.672Z,99048.53
2022-07-27T03:35:11.824Z,99040.34
2022-07-27T03:36:15.099Z,99043.02
2022-07-27T03:37:17.871Z,99046.83
2022-07-27T03:38:20.471Z,99044.84
2022-07-27T03:39:23.069Z,99047.59
2022-07-27T03:40:27.579Z,99051.09
2022-07-27T03:41:30.598Z,99056.95
2022-07-27T03:42:33.228Z,99053.17
2022-07-27T03:43:36.245Z,99060.02
2022-07-27T03:44:39.020Z,99055.52
2022-07-27T03:45:41.607Z,99054.49
2022-07-27T03:46:44.557Z,99058.00
2022-07-27T03:47:47.168Z,99057.01
2022-07-27T03:48:49.863Z,99055.23
2022-07-27T03:49:52.565Z,99055.34
2022-07-27T03:50:55.236Z,99053.56
2022-07-27T03:51:57.865Z,99063.90
2022-07-27T03:53:00.504Z,99062.91
2022-07-27T03:54:03.041Z,99058.30
2022-07-27T03:55:05.915Z,99059.67
2022-07-27T03:56:09.232Z,99052.38
2022-07-27T03:57:11.763Z,99050.45
2022-07-27T03:58:14.430Z,99056.34
2022-07-27T03:59:17.099Z,99055.39
2022-07-27T04:00:21.202Z,99057.78
2022-07-27T04:01:24.194Z,99061.81
2022-07-27T04:02:27.324Z,99060.84
2022-07-27T04:03:30.031Z,99057.86
2022-07-27T04:04:32.596Z,99067.45
2022-07-27T04:05:35.035Z,99066.55
2022-07-27T04:06:38.047Z,99065.66
2022-07-27T04:07:41.936Z,99068.86
2022-07-27T04:08:44.504Z,99064.98
2022-07-27T04:09:48.459Z,99070.72
2022-07-27T04:10:53.020Z,99067.21
2022-07-27T04:11:55.696Z,99066.94
2022-07-27T04:12:58.357Z,99072.30
2022-07-27T04:14:01.949Z,99065.17
2022-07-27T04:15:04.616Z,99073.03
2022-07-27T04:16:07.590Z,99063.86
2022-07-27T04:17:10.258Z,99063.70
2022-07-27T04:18:13.248Z,99069.64
2022-07-27T04:19:16.272Z,99070.41
2022-07-27T04:20:20.112Z,99061.23
2022-07-27T04:21:23.395Z,99059.16
2022-07-27T04:22:28.323Z,99064.73
2022-07-27T04:23:36.169Z,99065.70
2022-07-27T04:24:35.600Z,99069.52
2022-07-27T04:25:38.125Z,99073.70
2022-07-27T04:26:41.042Z,99072.97
2022-07-27T04:27:43.610Z,99065.77
2022-07-27T04:28:46.276Z,99066.49
2022-07-27T04:29:48.959Z,99067.00
2022-07-27T04:30:52.083Z,99070.87
2022-07-27T04:31:54.798Z,99073.77
2022-07-27T04:32:57.497Z,99075.84
2022-07-27T04:34:00.135Z,99074.66
2022-07-27T04:35:02.707Z,99081.67
2022-07-27T04:36:05.683Z,99078.88
2022-07-27T04:37:08.360Z,99075.52
2022-07-27T04:38:11.016Z,99077.30
2022-07-27T04:39:13.943Z,99079.52
2022-07-27T04:41:30.215Z,99071.97
2022-07-27T04:42:33.392Z,99070.45
2022-07-27T04:43:36.961Z,99080.19
2022-07-27T04:44:39.488Z,99076.80
2022-07-27T04:45:42.125Z,99079.02
2022-07-27T04:46:45.074Z,99079.23
2022-07-27T04:47:47.676Z,99084.95
2022-07-27T04:48:50.291Z,99077.62
2022-07-27T04:49:52.941Z,99083.55
2022-07-27T04:50:55.917Z,99085.50
2022-07-27T04:51:58.485Z,99077.14
2022-07-27T04:53:01.093Z,99081.85
2022-07-27T04:54:03.765Z,99079.16
2022-07-27T04:55:06.439Z,99079.75
2022-07-27T04:56:09.608Z,99083.02
2022-07-27T04:57:12.178Z,99078.45
2022-07-27T04:58:14.883Z,99076.66
2022-07-27T04:59:17.521Z,99078.36
2022-07-27T05:00:21.928Z,99066.38
2022-07-27T05:01:24.633Z,99075.23
2022-07-27T05:02:27.877Z,99070.66
2022-07-27T05:03:30.403Z,99072.00
2022-07-27T05:04:33.046Z,99066.86
2022-07-27T05:05:35.993Z,99075.95
2022-07-27T05:06:39.065Z,99070.70
2022-07-27T05:07:41.639Z,99067.09
2022-07-27T05:08:44.305Z,99072.66
2022-07-27T05:09:46.977Z,99065.77
2022-07-27T05:10:49.775Z,99075.50
2022-07-27T05:11:52.496Z,99071.13
2022-07-27T05:12:55.350Z,99076.97
2022-07-27T05:13:57.919Z,99073.63
2022-07-27T05:15:00.680Z,99074.39
2022-07-27T05:16:03.430Z,99071.89
2022-07-27T05:17:06.363Z,99069.52
2022-07-27T05:18:09.411Z,99072.80
2022-07-27T05:19:12.560Z,99070.80
2022-07-27T05:20:17.304Z,99068.21
2022-07-27T05:21:21.052Z,99077.08
2022-07-27T05:22:23.973Z,99067.69
2022-07-27T05:23:26.539Z,99076.34
2022-07-27T05:24:29.064Z,99077.98
2022-07-27T05:25:31.613Z,99080.14
2022-07-27T05:26:34.704Z,99077.08
2022-07-27T05:27:37.332Z,99081.79
2022-07-27T05:28:41.874Z,99087.55
2022-07-27T05:29:44.877Z,99081.23
2022-07-27T05:30:47.844Z,99082.70
2022-07-27T05:31:50.481Z,99079.27
2022-07-27T05:32:53.480Z,99081.51
2022-07-27T05:33:58.370Z,99086.45
2022-07-27T05:35:00.710Z,99082.70
2022-07-27T05:36:03.646Z,99087.37
2022-07-27T05:37:07.998Z,99080.66
2022-07-27T05:38:10.643Z,99084.45
2022-07-27T05:39:13.928Z,99080.16
2022-07-27T05:40:18.482Z,99084.50
2022-07-27T05:41:21.296Z,99085.03
2022-07-27T05:42:24.256Z,99086.16
2022-07-27T05:43:27.806Z,99082.91
2022-07-27T05:44:30.425Z,99088.88
2022-07-27T05:45:33.177Z,99087.77
2022-07-27T05:46:37.087Z,99088.06
2022-07-27T05:47:40.674Z,99087.50
2022-07-27T05:48:43.249Z,99086.16
2022-07-27T05:49:46.017Z,99079.37
2022-07-27T05:50:48.990Z,99093.18
2022-07-27T05:51:51.657Z,99090.48
2022-07-27T05:52:54.325Z,99088.59
2022-07-27T05:53:56.892Z,99089.92
2022-07-27T05:54:59.426Z,99084.20
2022-07-27T05:56:01.954Z,99086.13
2022-07-27T05:57:04.591Z,99082.05
2022-07-27T05:58:07.161Z,99088.55
2022-07-27T05:59:10.133Z,99083.64
2022-07-27T06:00:14.011Z,99094.75
2022-07-27T06:01:16.646Z,99086.34
2022-07-27T06:02:19.276Z,99085.53
2022-07-27T06:03:22.394Z,99086.09
2022-07-27T06:04:25.227Z,99091.48
2022-07-27T06:05:27.753Z,99091.99
2022-07-27T06:06:31.185Z,99095.26
2022-07-27T06:07:35.546Z,99095.22
2022-07-27T06:08:38.157Z,99097.62
2022-07-27T06:09:40.728Z,99089.18
2022-07-27T06:10:43.397Z,99098.37
2022-07-27T06:11:46.065Z,99095.02
2022-07-27T06:12:48.737Z,99099.30
2022-07-27T06:13:51.441Z,99093.02
2022-07-27T06:14:54.023Z,99097.12
2022-07-27T06:15:56.641Z,99104.78
2022-07-27T06:16:59.427Z,99102.85
2022-07-27T06:18:02.078Z,99101.00
2022-07-27T06:19:04.702Z,99104.01
2022-07-27T06:20:08.032Z,99109.69
2022-07-27T06:21:11.034Z,99107.20
2022-07-27T06:22:13.669Z,99110.13
2022-07-27T06:23:16.195Z,99118.23
2022-07-27T06:24:18.806Z,99115.77
2022-07-27T06:25:21.680Z,99118.70
2022-07-27T06:26:25.274Z,99117.28
2022-07-27T06:27:29.699Z,99118.95
2022-07-27T06:28:32.454Z,99113.02
2022-07-27T06:29:35.121Z,99113.86
2022-07-27T06:30:38.097Z,99110.05
2022-07-27T06:31:40.754Z,99108.36
2022-07-27T06:32:45.176Z,99109.67
2022-07-27T06:33:50.990Z,99110.94
2022-07-27T06:34:53.996Z,99103.73
2022-07-27T06:35:57.664Z,99110.43
2022-07-27T06:37:02.220Z,99116.78
2022-07-27T06:38:04.873Z,99113.74
2022-07-27T06:39:07.545Z,99116.89
2022-07-27T06:40:11.349Z,99112.45
2022-07-27T06:41:14.004Z,99109.41
2022-07-27T06:42:16.678Z,99112.13
2022-07-27T06:43:19.445Z,99111.35
2022-07-27T06:44:21.972Z,99115.49
2022-07-27T06:45:24.582Z,99111.26
2022-07-27T06:46:28.930Z,99115.80
2022-07-27T06:47:31.558Z,99115.14
2022-07-27T06:48:34.206Z,99114.57
2022-07-27T06:49:36.893Z,99116.22
2022-07-27T06:50:40.184Z,99114.88
2022-07-27T06:51:42.853Z,99112.12
2022-07-27T06:52:45.521Z,99117.39
2022-07-27T06:53:48.093Z,99126.25
2022-07-27T06:54:50.868Z,99119.52
2022-07-27T06:55:53.524Z,99117.59
2022-07-27T06:56:58.036Z,99112.95
2022-07-27T06:58:00.559Z,99117.16
2022-07-27T06:59:03.180Z,99121.26
2022-07-27T07:00:06.316Z,99123.77
2022-07-27T07:01:09.187Z,99114.55
2022-07-27T07:02:11.995Z,99124.52
2022-07-27T07:03:14.665Z,99119.95
2022-07-27T07:04:17.258Z,99119.63
2022-07-27T07:05:22.052Z,99120.75
2022-07-27T07:06:25.152Z,99118.69
2022-07-27T07:07:27.699Z,99115.34
2022-07-27T07:08:30.472Z,99123.48
2022-07-27T07:09:33.137Z,99116.77
2022-07-27T07:10:36.425Z,99126.95
2022-07-27T07:11:39.029Z,99121.08
2022-07-27T07:12:41.659Z,99121.28
2022-07-27T07:13:45.200Z,99125.64
2022-07-27T07:14:47.994Z,99128.79
2022-07-27T07:15:50.674Z,99131.41
2022-07-27T07:16:53.464Z,99128.14
2022-07-27T07:17:56.441Z,99126.52
2022-07-27T07:18:59.114Z,99125.45
2022-07-27T07:20:01.679Z,99123.87
2022-07-27T07:21:04.268Z,99127.30
2022-07-27T07:22:06.911Z,99128.61
2022-07-27T07:23:09.582Z,99130.11
2022-07-27T07:24:12.253Z,99123.39
2022-07-27T07:25:15.021Z,99128.98
2022-07-27T07:26:18.344Z,99122.79
2022-07-27T07:27:20.977Z,99125.91
2022-07-27T07:28:23.600Z,99120.24
2022-07-27T07:29:26.211Z,99133.54
2022-07-27T07:30:29.599Z,99128.38
2022-07-27T07:31:32.403Z,99129.49
2022-07-27T07:32:35.156Z,99130.84
2022-07-27T07:33:37.708Z,99128.27
2022-07-27T07:34:40.376Z,99133.73
2022-07-27T07:36:13.712Z,99131.50
2022-07-27T07:36:47.767Z,99133.20
2022-07-27T07:37:50.865Z,99127.90
2022-07-27T07:38:53.744Z,99135.88
2022-07-27T07:39:56.509Z,99133.63
2022-07-27T07:40:59.641Z,99138.27
2022-07-27T07:42:02.648Z,99131.92
2022-07-27T07:43:05.894Z,99132.00
2022-07-27T07:44:08.501Z,99129.61
2022-07-27T07:45:11.064Z,99134.51
2022-07-27T07:46:14.260Z,99132.30
2022-07-27T07:47:16.909Z,99134.75
2022-07-27T07:48:19.442Z,99131.32
2022-07-27T07:49:38.110Z,99140.63
2022-07-27T07:50:28.502Z,99136.38
2022-07-27T07:51:31.171Z,99134.72
2022-07-27T07:52:33.665Z,99132.34
2022-07-27T07:53:41.202Z,99143.00
2022-07-27T07:54:40.784Z,99136.17
2022-07-27T07:55:43.589Z,99138.70
2022-07-27T07:56:46.463Z,99132.34
2022-07-27T07:57:49.133Z,99141.84
2022-07-27T07:58:53.607Z,99141.10
2022-07-27T07:59:56.341Z,99135.88
2022-07-27T08:00:59.291Z,99136.92
2022-07-27T08:02:02.248Z,99138.38
2022-07-27T08:03:05.315Z,99137.78
2022-07-27T08:04:08.253Z,99135.86
2022-07-27T08:05:10.848Z,99135.93
2022-07-27T08:06:15.429Z,99132.70
2022-07-27T08:07:18.102Z,99131.89
2022-07-27T08:08:20.772Z,99129.05
2022-07-27T08:09:25.327Z,99127.45
2022-07-27T08:10:29.356Z,99127.58
2022-07-27T08:11:31.880Z,99128.67
2022-07-27T08:12:34.500Z,99127.91
2022-07-27T08:13:37.162Z,99136.20
2022-07-27T08:14:39.726Z,99124.98
2022-07-27T08:15:42.507Z,99127.21
2022-07-27T08:16:45.895Z,99125.56
2022-07-27T08:17:50.292Z,99121.47
2022-07-27T08:18:52.861Z,99123.92
2022-07-27T08:19:55.537Z,99129.17
2022-07-27T08:20:58.609Z,99125.79
2022-07-27T08:22:02.198Z,99130.75
2022-07-27T08:23:05.439Z,99121.83
2022-07-27T08:24:08.048Z,99125.94
2022-07-27T08:25:10.717Z,99128.11
2022-07-27T08:26:15.337Z,99123.44
2022-07-27T08:27:18.001Z,99127.50
2022-07-27T08:28:20.681Z,99126.88
2022-07-27T08:29:23.991Z,99127.09
2022-07-27T08:30:32.204Z,99130.70
2022-07-27T08:31:52.684Z,99132.13
2022-07-27T08:32:39.485Z,99121.29
2022-07-27T08:33:42.312Z,99119.89
2022-07-27T08:34:44.879Z,99118.06
2022-07-27T08:35:47.365Z,99116.75
2022-07-27T08:36:50.628Z,99121.61
2022-07-27T08:37:53.193Z,99117.77
2022-07-27T08:38:55.760Z,99114.70
2022-07-27T08:41:02.925Z,99113.52
2022-07-27T08:42:05.509Z,99112.16
2022-07-27T08:43:08.484Z,99107.39
2022-07-27T08:44:11.157Z,99114.93
2022-07-27T08:45:16.108Z,99112.02
2022-07-27T08:46:20.040Z,99111.30
2022-07-27T08:47:22.811Z,99115.46
2022-07-27T08:48:25.415Z,99116.34
2022-07-27T08:49:42.000Z,99114.48
2022-07-27T08:50:32.556Z,99107.92
2022-07-27T08:51:35.165Z,99106.30
2022-07-27T08:52:37.746Z,99117.07
2022-07-27T08:53:52.694Z,99118.08
2022-07-27T08:54:44.776Z,99119.92
2022-07-27T08:55:47.387Z,99119.16
2022-07-27T08:56:50.557Z,99111.81
2022-07-27T08:57:53.124Z,99116.15
2022-07-27T08:58:55.693Z,99117.39
2022-07-27T08:59:58.361Z,99117.66
2022-07-27T09:01:01.236Z,99123.00
2022-07-27T09:02:05.116Z,99120.51
2022-07-27T09:03:07.965Z,99117.61
2022-07-27T09:04:10.898Z,99118.65
2022-07-27T09:05:13.552Z,99113.09
2022-07-27T09:06:17.962Z,99113.34
2022-07-27T09:07:20.631Z,99117.80
2022-07-27T09:08:23.195Z,99122.59
2022-07-27T09:09:25.772Z,99119.63
2022-07-27T09:10:29.256Z,99112.31
2022-07-27T09:11:31.931Z,99115.91
2022-07-27T09:12:34.489Z,99124.03
2022-07-27T09:13:37.058Z,99113.22
2022-07-27T09:14:39.742Z,99120.95
2022-07-27T09:16:03.402Z,99119.95
2022-07-27T09:17:44.098Z,99124.28
2022-07-27T09:17:51.895Z,99120.20
2022-07-27T09:18:54.609Z,99117.52
2022-07-27T09:19:57.276Z,99116.67
2022-07-27T09:21:00.296Z,99117.84
2022-07-27T09:22:04.180Z,99115.30
2022-07-27T09:23:06.818Z,99115.47
2022-07-27T09:24:23.317Z,99108.12
2022-07-27T09:25:14.302Z,99113.96
2022-07-27T09:26:31.203Z,99112.38
2022-07-27T09:27:22.410Z,99120.33
2022-07-27T09:28:25.075Z,99118.06
2022-07-27T09:29:27.749Z,99117.25
2022-07-27T09:30:31.986Z,99115.94
2022-07-27T09:31:34.542Z,99116.22
2022-07-27T09:32:37.388Z,99113.92
2022-07-27T09:33:39.916Z,99112.28
2022-07-27T09:34:43.284Z,99107.59
2022-07-27T09:35:47.141Z,99113.20
2022-07-27T09:36:50.117Z,99119.94
2022-07-27T09:37:52.788Z,99116.08
2022-07-27T09:39:00.169Z,99114.30
2022-07-27T09:39:59.923Z,99121.85
2022-07-27T09:41:02.537Z,99120.91
2022-07-27T09:42:06.104Z,99123.00
2022-07-27T09:43:32.126Z,99116.42
2022-07-27T09:44:32.258Z,99117.54
2022-07-27T09:45:19.762Z,99121.38
2022-07-27T09:46:24.899Z,99126.28
2022-07-27T09:47:29.371Z,99116.94
2022-07-27T09:48:32.029Z,99116.36
2022-07-27T09:49:34.641Z,99120.19
2022-07-27T09:50:38.607Z,99111.70
2022-07-27T09:51:59.298Z,99119.97
2022-07-27T09:52:45.789Z,99112.77
2022-07-27T09:53:48.456Z,99126.28
2022-07-27T09:54:51.014Z,99119.30
2022-07-27T09:55:58.984Z,99119.87
2022-07-27T09:56:58.340Z,99115.70
2022-07-27T09:58:00.905Z,99115.13
2022-07-27T09:59:03.576Z,99109.86
2022-07-27T10:00:06.623Z,99110.16
2022-07-27T10:01:09.752Z,99110.77
2022-07-27T10:02:12.667Z,99110.45
2022-07-27T10:03:15.645Z,99109.38
2022-07-27T10:04:18.331Z,99113.33
2022-07-27T10:05:20.881Z,99115.75
2022-07-27T10:06:25.255Z,99113.66
2022-07-27T10:07:28.925Z,99101.91
2022-07-27T10:08:31.489Z,99118.06
2022-07-27T10:09:34.069Z,99116.41
2022-07-27T10:10:37.142Z,99105.94
2022-07-27T10:11:39.808Z,99115.70
2022-07-27T10:12:42.686Z,99116.06
2022-07-27T10:13:45.350Z,99115.00
2022-07-27T10:14:48.024Z,99111.05
2022-07-27T10:15:50.764Z,99114.50
2022-07-27T10:16:53.724Z,99111.58
2022-07-27T10:17:56.338Z,99110.78
2022-07-27T10:18:59.014Z,99116.91
2022-07-27T10:20:01.632Z,99119.20
2022-07-27T10:21:04.340Z,99119.17
2022-07-27T10:22:06.972Z,99109.42
2022-07-27T10:23:09.985Z,99118.81
2022-07-27T10:24:13.351Z,99114.97
2022-07-27T10:25:16.245Z,99119.52
2022-07-27T10:26:19.594Z,99121.62
2022-07-27T10:27:22.310Z,99118.22
2022-07-27T10:28:25.277Z,99118.16
2022-07-27T10:29:27.848Z,99115.86
2022-07-27T10:30:30.844Z,99108.67
2022-07-27T10:31:33.479Z,99112.41
2022-07-27T10:32:36.163Z,99118.47
2022-07-27T10:33:38.830Z,99121.41
2022-07-27T10:34:41.401Z,99114.11
2022-07-27T10:35:44.035Z,99115.31
2022-07-27T10:36:47.173Z,99113.51
2022-07-27T10:37:49.917Z,99112.86
2022-07-27T10:38:52.485Z,99122.07
2022-07-27T10:39:55.049Z,99117.52
2022-07-27T10:40:58.123Z,99115.22
2022-07-27T10:42:02.127Z,99113.02
2022-07-27T10:43:04.961Z,99114.91
2022-07-27T10:44:07.672Z,99118.26
2022-07-27T10:45:10.365Z,99120.08
2022-07-27T10:46:13.912Z,99116.13
2022-07-27T10:47:16.561Z,99111.03
2022-07-27T10:48:19.374Z,99112.53
2022-07-27T10:49:23.973Z,99113.20
2022-07-27T10:50:27.075Z,99121.77
2022-07-27T10:51:29.698Z,99109.05
2022-07-27T10:52:32.308Z,99116.59
2022-07-27T10:53:55.089Z,99115.22
2022-07-27T10:54:39.798Z,99112.36
2022-07-27T10:55:42.568Z,99120.31
2022-07-27T10:56:45.241Z,99114.35
2022-07-27T10:57:47.912Z,99118.21
2022-07-27T10:58:50.501Z,99109.02
2022-07-27T11:00:12.201Z,99107.84
2022-07-27T11:00:57.979Z,99112.67
2022-07-27T11:02:00.599Z,99101.52
2022-07-27T11:03:03.420Z,99102.20
2022-07-27T11:04:06.154Z,99103.22
2022-07-27T11:05:18.303Z,99103.86
2022-07-27T11:07:24.990Z,99108.86
2022-07-27T11:08:36.793Z,99108.70
2022-07-27T11:10:34.378Z,99107.81
2022-07-27T11:11:36.946Z,99111.98
2022-07-27T11:12:39.621Z,99111.34
2022-07-27T11:13:42.285Z,99112.50
2022-07-27T11:14:44.919Z,99110.30
2022-07-27T11:15:47.537Z,99107.22
2022-07-27T11:16:55.989Z,99100.01
2022-07-27T11:18:03.396Z,99105.16
2022-07-27T11:18:59.509Z,99098.77
2022-07-27T11:20:02.496Z,99098.06
2022-07-27T11:21:05.069Z,99101.23
2022-07-27T11:22:22.218Z,99098.84
2022-07-27T11:23:49.978Z,99100.20
2022-07-27T11:24:17.705Z,99100.98
2022-07-27T11:25:20.342Z,99100.82
2022-07-27T11:26:24.039Z,99102.27
2022-07-27T11:27:26.598Z,99103.54
2022-07-27T11:28:29.169Z,99098.75
2022-07-27T11:29:31.747Z,99097.95
2022-07-27T11:30:35.391Z,99098.11
2022-07-27T11:31:54.716Z,99098.50
2022-07-27T11:32:42.716Z,99095.67
2022-07-27T11:33:45.382Z,99096.28
2022-07-27T11:34:47.907Z,99098.67
2022-07-27T11:35:50.631Z,99097.18
2022-07-27T11:36:54.004Z,99099.94
2022-07-27T11:37:56.553Z,99094.39
2022-07-27T11:38:59.142Z,99100.64
2022-07-27T11:40:05.039Z,99092.02
2022-07-27T11:41:15.304Z,99099.39
2022-07-27T11:42:11.997Z,99101.06
2022-07-27T11:43:15.856Z,99097.56
2022-07-27T11:44:18.792Z,99099.39
2022-07-27T11:45:22.119Z,99098.61
2022-07-27T11:46:25.165Z,99092.27
2022-07-27T11:47:28.382Z,99099.28
2022-07-27T11:48:44.022Z,99104.00
2022-07-27T11:49:35.509Z,99103.17
2022-07-27T11:50:39.151Z,99102.56
2022-07-27T11:51:41.823Z,99098.20
2022-07-27T11:52:44.454Z,99105.56
2022-07-27T11:53:47.057Z,99106.20
2022-07-27T11:54:49.533Z,99098.94
2022-07-27T11:55:52.190Z,99104.80
2022-07-27T11:56:55.472Z,99106.18
2022-07-27T11:57:58.041Z,99102.61
2022-07-27T11:59:01.544Z,99102.28
2022-07-27T12:00:04.420Z,99090.78
2022-07-27T12:01:06.970Z,99093.44
2022-07-27T12:02:09.570Z,99091.59
2022-07-27T12:03:12.720Z,99096.30
2022-07-27T12:04:15.388Z,99098.94
2022-07-27T12:05:18.085Z,99090.19
2022-07-27T12:06:22.471Z,99094.37
2022-07-27T12:07:25.136Z,99094.83
2022-07-27T12:08:27.707Z,99089.80
2022-07-27T12:09:38.308Z,99096.00
2022-07-27T12:10:37.731Z,99088.39
2022-07-27T12:11:39.296Z,99095.64
2022-07-27T12:12:42.067Z,99089.67
2022-07-27T12:13:44.632Z,99086.16
2022-07-27T12:14:47.206Z,99088.58
2022-07-27T12:15:49.767Z,99082.12
2022-07-27T12:16:52.425Z,99093.11
2022-07-27T12:17:55.018Z,99094.30
2022-07-27T12:18:59.109Z,99086.55
2022-07-27T12:20:01.681Z,99089.80
2022-07-27T12:21:04.261Z,99089.61
2022-07-27T12:22:06.818Z,99093.09
2022-07-27T12:23:09.888Z,99089.87
2022-07-27T12:24:12.561Z,99088.03